Patrick J. Studdert — WDG4262 — position and weather

sailwx.info

Track history (hours):
 
Tides and Currents Weather Stations Pressure Air Temp Water Temp Dewpoint Dewpoint Depression Visibility Wind Speed Wind Dir Waves Ship Positions

Patrick J. Studdert

Owner: SHAMROCK MARINE L.L.C., Kingwood, TX. More information available from US FCC via Universal Licensing System and Coast Guard Vessel Documentation Center.

Last reported at 2018-Jun-21 11:30 UTC. Time now 2018-Jun-21 11:55 UTC.
Position N 29°19' W 094°47'.

Length 100 m; draft 3 m.

Type: Towing. MMSI: 367534690.

Date/timePositionNaut miles runAvg speedWind from/ knotsBaromVisibWave heightAir tempDewpointWater temp
2018-Jun-21 11:30N 29°19' W 094°47'0 0.0
2018-Jun-21 11:00N 29°19' W 094°47'0 0.0
2018-Jun-21 10:30N 29°19' W 094°47'0 0.0
2018-Jun-21 10:00N 29°19' W 094°47'0 0.0
2018-Jun-21 09:30N 29°19' W 094°47'0 0.0
2018-Jun-21 09:00N 29°19' W 094°47'0 0.0
2018-Jun-21 08:30N 29°19' W 094°47'0 0.0
2018-Jun-21 07:57N 29°19' W 094°47'0 0.0
2018-Jun-21 07:30N 29°19' W 094°47'0 0.0
2018-Jun-21 07:00N 29°19' W 094°47'0 0.0
2018-Jun-21 06:30N 29°19' W 094°47'0 0.0
2018-Jun-21 05:58N 29°19' W 094°47'0 0.0
2018-Jun-21 05:28N 29°19' W 094°47'0 0.0
2018-Jun-21 04:58N 29°19' W 094°47'0 0.0
2018-Jun-21 04:28N 29°19' W 094°47'0 0.0
2018-Jun-21 03:58N 29°19' W 094°47'0 0.0
2018-Jun-21 03:28N 29°19' W 094°47'0 0.0
2018-Jun-21 02:58N 29°19' W 094°47'0 0.0
2018-Jun-21 02:28N 29°19' W 094°47'0 0.0
2018-Jun-21 01:58N 29°19' W 094°47'0 0.0
2018-Jun-21 01:28N 29°19' W 094°47'0 0.0
2018-Jun-21 00:58N 29°19' W 094°47'0 0.0
2018-Jun-21 00:25N 29°19' W 094°47'0 0.0
2018-Jun-20 23:58N 29°19' W 094°47'0 0.0
2018-Jun-20 23:28N 29°19' W 094°47'0 0.0
2018-Jun-20 22:58N 29°19' W 094°47'0 0.0
2018-Jun-20 22:28N 29°19' W 094°47'0 0.0
2018-Jun-20 21:58N 29°19' W 094°47'0 0.0
2018-Jun-20 21:28N 29°19' W 094°47'0 0.0
2018-Jun-20 20:58N 29°19' W 094°47'0 0.0
2018-Jun-20 20:28N 29°19' W 094°47'0 0.0
2018-Jun-20 19:52N 29°19' W 094°47'0 0.3
2018-Jun-20 19:28N 29°19' W 094°47'2 3.2
2018-Jun-20 18:59N 29°21' W 094°47'2 4.7
2018-Jun-20 18:30N 29°23' W 094°48'3 5.2
2018-Jun-20 18:00N 29°25' W 094°50'3 5.4
2018-Jun-20 17:26N 29°28' W 094°51'3 5.8
2018-Jun-20 16:52N 29°31' W 094°53'2 6.0
2018-Jun-20 16:30N 29°33' W 094°54'3 6.2
2018-Jun-20 15:58N 29°35' W 094°56'3 6.3
2018-Jun-20 15:27N 29°38' W 094°58'3 6.3
2018-Jun-20 15:01N 29°41' W 094°59'5 0.4
2018-Jun-20 02:34N 29°44' W 095°03'0 0.0
2018-Jun-20 02:13N 29°44' W 095°03'0 0.0
2018-Jun-20 01:58N 29°44' W 095°03'0 0.0
2018-Jun-20 01:28N 29°44' W 095°03'0 0.0
2018-Jun-20 00:31N 29°44' W 095°03'1309161.4
2018-Jun-19 16:24N 41°15' W 072°17'2 3.8
2018-Jun-19 15:52N 41°15' W 072°20'2 4.6
2018-Jun-19 15:30N 41°15' W 072°22'3 5.9
2018-Jun-19 15:00N 41°14' W 072°26'2 4.9
2018-Jun-19 14:30N 41°13' W 072°29'5 7.5
2018-Jun-19 13:52N 41°11' W 072°35'  
2018-Jun-15 15:17N 40°45' W 073°58'2 6.8
2018-Jun-15 14:57N 40°43' W 073°58'3 7.4
2018-Jun-15 14:29N 40°41' W 074°02'122271.8
2018-Jun-14 21:29N 29°42' W 095°01'2 4.3
2018-Jun-14 21:00N 29°41' W 094°59'2 4.6
2018-Jun-14 20:30N 29°39' W 094°58'2 3.6
2018-Jun-14 19:54N 29°37' W 094°58'2 5.3
2018-Jun-14 19:30N 29°37' W 095°01'1 1.3
2018-Jun-14 19:00N 29°37' W 095°01'0 0.0
2018-Jun-14 18:20N 29°37' W 095°01'0 0.1
2018-Jun-14 17:59N 29°37' W 095°01'0 0.2
2018-Jun-14 17:29N 29°37' W 095°01'0 0.0
2018-Jun-14 16:59N 29°37' W 095°01'0 0.0
2018-Jun-14 16:29N 29°37' W 095°01'0 0.1
2018-Jun-14 15:56N 29°37' W 095°02'0 0.0
2018-Jun-14 15:29N 29°37' W 095°02'0 0.0
2018-Jun-14 14:57N 29°37' W 095°02'0 0.0
2018-Jun-14 14:27N 29°37' W 095°02'0 0.0
2018-Jun-14 13:57N 29°37' W 095°02'0 0.0
2018-Jun-14 13:21N 29°37' W 095°02'0 0.0
2018-Jun-14 12:57N 29°37' W 095°02'0 0.0
2018-Jun-14 12:30N 29°37' W 095°02'0 0.0
2018-Jun-14 12:00N 29°37' W 095°02'0 0.0
2018-Jun-14 11:30N 29°37' W 095°02'0 0.0
2018-Jun-14 11:00N 29°37' W 095°02'0 0.0
2018-Jun-14 10:30N 29°37' W 095°02'0 0.0
2018-Jun-14 10:00N 29°37' W 095°02'0 0.0
2018-Jun-14 09:30N 29°37' W 095°02'0 0.0
2018-Jun-14 08:57N 29°37' W 095°02'0 0.0
2018-Jun-14 08:27N 29°37' W 095°02'0 0.0
2018-Jun-14 08:00N 29°37' W 095°02'0 0.0
2018-Jun-14 07:27N 29°37' W 095°02'0 0.0
2018-Jun-14 06:51N 29°37' W 095°02'0 0.0
2018-Jun-14 06:30N 29°37' W 095°02'0 0.0
2018-Jun-14 05:57N 29°37' W 095°02'0 0.0
2018-Jun-14 05:27N 29°37' W 095°02'0 0.0
2018-Jun-14 05:00N 29°37' W 095°02'0 0.0
2018-Jun-14 04:27N 29°37' W 095°02'0 0.0
2018-Jun-14 04:00N 29°37' W 095°02'0 0.0
2018-Jun-14 03:30N 29°37' W 095°02'0 0.1
2018-Jun-14 03:00N 29°37' W 095°01'0 0.4
2018-Jun-14 02:30N 29°37' W 095°01'0 0.4
2018-Jun-14 02:00N 29°37' W 095°01'0 0.4
2018-Jun-14 01:30N 29°37' W 095°01'0 0.3
2018-Jun-14 00:58N 29°37' W 095°02'12023011.2
2018-Jun-14 00:34N 39°47' W 074°02'0 6.9
2018-Jun-14 00:30N 39°46' W 074°02'120229229.9
2018-Jun-14 00:28N 29°37' W 095°02'11992563.1
2018-Jun-14 00:00N 39°43' W 074°04'119936579.2
2018-Jun-13 23:58N 29°37' W 095°02'0 0.0
2018-Jun-13 23:31N 29°37' W 095°02'119636496.1
2018-Jun-13 23:29N 39°40' W 074°06'11962561.9
2018-Jun-13 23:01N 29°37' W 095°02'119446717.9
2018-Jun-13 22:59N 39°37' W 074°07'11942280.1
2018-Jun-13 22:28N 29°37' W 095°02'0 0.0
2018-Jun-13 21:58N 29°37' W 095°02'0 0.0
2018-Jun-13 21:28N 29°37' W 095°02'0 0.0
2018-Jun-13 20:58N 29°37' W 095°02'0 0.0
2018-Jun-13 20:28N 29°37' W 095°02'0 0.0
2018-Jun-13 19:58N 29°37' W 095°02'0 0.0
2018-Jun-13 19:28N 29°37' W 095°02'0 0.0
2018-Jun-13 18:58N 29°37' W 095°02'0 0.0
2018-Jun-13 18:28N 29°37' W 095°02'0 0.0
2018-Jun-13 17:58N 29°37' W 095°02'0 0.0
2018-Jun-13 17:25N 29°37' W 095°02'0 0.0
2018-Jun-13 16:58N 29°37' W 095°02'0 0.0
2018-Jun-13 16:28N 29°37' W 095°02'0 0.0
2018-Jun-13 15:58N 29°37' W 095°02'0 0.0
2018-Jun-13 15:28N 29°37' W 095°02'0 0.0
2018-Jun-13 14:58N 29°37' W 095°02'0 0.0
2018-Jun-13 14:28N 29°37' W 095°02'0 0.0
2018-Jun-13 13:49N 29°37' W 095°02'0 0.0
2018-Jun-13 13:28N 29°37' W 095°02'0 0.0
2018-Jun-13 12:58N 29°37' W 095°02'0 0.0
2018-Jun-13 12:28N 29°37' W 095°02'0 0.0
2018-Jun-13 11:55N 29°37' W 095°02'0 0.1
2018-Jun-13 11:28N 29°37' W 095°01'0 0.0
2018-Jun-13 10:58N 29°37' W 095°01'0 0.0
2018-Jun-13 10:28N 29°37' W 095°01'0 0.0
2018-Jun-13 09:58N 29°37' W 095°01'0 0.0
2018-Jun-13 09:28N 29°37' W 095°01'0 0.2
2018-Jun-13 08:58N 29°37' W 095°01'0 0.0
2018-Jun-13 08:29N 29°37' W 095°01'0 0.2
2018-Jun-13 07:59N 29°37' W 095°02'0 0.3
2018-Jun-13 07:29N 29°37' W 095°01'0 0.3
2018-Jun-13 06:59N 29°37' W 095°02'0 0.0
2018-Jun-13 06:30N 29°37' W 095°02'0 1.0
2018-Jun-13 06:00N 29°37' W 095°01'3 5.4
2018-Jun-13 05:30N 29°37' W 094°58'3 6.2
2018-Jun-13 04:57N 29°34' W 094°55'3 6.7
2018-Jun-13 04:28N 29°32' W 094°53'3 6.2
2018-Jun-13 04:00N 29°29' W 094°52'3 6.2
2018-Jun-13 03:30N 29°26' W 094°50'3 5.7
2018-Jun-13 03:01N 29°24' W 094°49'2 4.1
2018-Jun-13 02:30N 29°22' W 094°49'3 6.5
2018-Jun-13 01:59N 29°23' W 094°52'0 0.3
2018-Jun-13 01:26N 29°23' W 094°52'0 0.0
2018-Jun-13 00:53N 29°23' W 094°52'0 0.0
2018-Jun-13 00:29N 29°23' W 094°52'0 0.0
2018-Jun-12 23:59N 29°23' W 094°52'0 0.0
2018-Jun-12 23:20N 29°23' W 094°52'1 1.9
2018-Jun-12 23:00N 29°23' W 094°53'1 2.1
2018-Jun-12 22:29N 29°22' W 094°54'0 0.0
2018-Jun-12 21:56N 29°22' W 094°53'0 0.0
2018-Jun-12 21:26N 29°22' W 094°53'1 3.2
2018-Jun-12 21:01N 29°23' W 094°52'1 2.6
2018-Jun-12 20:28N 29°22' W 094°54'113620150.5
2018-Jun-12 20:24N 39°07' W 075°15'11362561.4
2018-Jun-12 19:58N 29°22' W 094°54'113720063.0
2018-Jun-12 19:54N 39°09' W 075°16'2 5.4
2018-Jun-12 19:30N 39°11' W 075°17'113726239.0
2018-Jun-12 19:28N 29°22' W 094°54'11372492.3
2018-Jun-12 19:00N 39°14' W 075°19'113726066.5
2018-Jun-12 18:58N 29°22' W 094°54'11362488.2
2018-Jun-12 18:30N 39°16' W 075°22'1135145962.1
2018-Jun-12 18:30N 29°22' W 094°53'11352264.9
2018-Jun-12 18:00N 39°19' W 075°24'113410742.7
2018-Jun-12 17:53N 29°23' W 094°52'11332936.7
2018-Jun-12 17:30N 39°21' W 075°27'113379980.7
2018-Jun-12 17:29N 29°23' W 094°52'11322355.5
2018-Jun-12 17:01N 39°24' W 075°30'113257394.6
2018-Jun-12 16:59N 29°23' W 094°52'11312354.8
2018-Jun-12 16:31N 39°27' W 075°33'113046745.4
2018-Jun-12 16:29N 29°22' W 094°50'3 6.2
2018-Jun-12 16:00N 29°21' W 094°47'1129338697.3
2018-Jun-12 16:00N 39°30' W 075°34'1130917.5
2018-Jun-12 14:46N 29°19' W 094°47'0 0.3
2018-Jun-12 14:22N 29°19' W 094°47'0 0.1
2018-Jun-12 13:52N 29°19' W 094°47'0 0.1
2018-Jun-12 13:08N 29°19' W 094°47'0 0.0
2018-Jun-12 12:59N 29°19' W 094°47'0 0.0
2018-Jun-12 12:29N 29°19' W 094°47'0 0.0
2018-Jun-12 11:32N 29°19' W 094°47'0 0.0
2018-Jun-12 11:29N 29°19' W 094°47'0 0.0
2018-Jun-12 02:35N 29°19' W 094°47'0 0.0
2018-Jun-12 02:26N 29°19' W 094°47'0 0.0
2018-Jun-12 01:56N 29°19' W 094°47'0 0.0
2018-Jun-12 01:29N 29°19' W 094°47'11315373.0
2018-Jun-12 01:16N 39°31' W 075°34'0 1.5
2018-Jun-12 01:00N 39°32' W 075°34'113150285.5
2018-Jun-12 00:59N 29°19' W 094°47'11322371.3
2018-Jun-12 00:30N 39°34' W 075°34'113252259.0
2018-Jun-12 00:29N 29°19' W 094°47'11292371.6
2018-Jun-12 00:00N 39°33' W 075°38'112947822.9
2018-Jun-11 23:59N 29°19' W 094°47'11262365.6
2018-Jun-11 23:30N 39°33' W 075°43'112644530.2
2018-Jun-11 23:29N 29°19' W 094°47'11222362.9
2018-Jun-11 23:00N 39°32' W 075°48'112244869.3
2018-Jun-11 22:59N 29°19' W 094°47'11182315.8
2018-Jun-11 22:30N 39°31' W 075°53'111864915.9
2018-Jun-11 22:29N 29°19' W 094°47'11142268.5
2018-Jun-11 21:59N 39°29' W 075°57'1114133692.9
2018-Jun-11 21:59N 29°19' W 094°47'0 0.0
2018-Jun-11 21:29N 29°19' W 094°47'0 0.0
2018-Jun-11 20:59N 29°19' W 094°47'0 0.0
2018-Jun-11 20:29N 29°19' W 094°47'0 0.0
2018-Jun-11 19:59N 29°19' W 094°47'0 0.0
2018-Jun-11 19:29N 29°19' W 094°47'0 0.0
2018-Jun-11 18:59N 29°19' W 094°47'0 0.0
2018-Jun-11 18:29N 29°19' W 094°47'0 0.0
2018-Jun-11 17:53N 29°19' W 094°47'0 0.0
2018-Jun-11 17:29N 29°19' W 094°47'0 0.0
2018-Jun-11 16:56N 29°19' W 094°47'0 0.0
2018-Jun-11 16:29N 29°19' W 094°47'108129702.8
2018-Jun-11 16:27N 38°59' W 076°25'10812331.4
2018-Jun-11 15:59N 29°19' W 094°47'0 0.0
2018-Jun-11 15:26N 29°19' W 094°47'0 0.0
2018-Jun-11 14:59N 29°19' W 094°47'0 0.0
2018-Jun-11 14:20N 29°19' W 094°47'0 0.0
2018-Jun-11 13:59N 29°19' W 094°47'0 0.0
2018-Jun-11 13:29N 29°19' W 094°47'0 0.0
2018-Jun-11 12:59N 29°19' W 094°47'0 0.0
2018-Jun-11 12:29N 29°19' W 094°47'0 0.0
2018-Jun-11 11:59N 29°19' W 094°47'  
Track history (hours):
 
Tides and Currents Weather Stations Pressure Air Temp Water Temp Dewpoint Dewpoint Depression Visibility Wind Speed Wind Dir Waves Ship Positions

Patrick J. Studdert

Owner: SHAMROCK MARINE L.L.C., Kingwood, TX. More information available from US FCC via Universal Licensing System and Coast Guard Vessel Documentation Center.

Last reported at 2018-Jun-21 11:30 UTC. Time now 2018-Jun-21 11:55 UTC.
Position N 29°19' W 094°47'.

Length 100 m; draft 3 m.

Type: Towing. MMSI: 367534690.

Date/timePositionNaut miles runAvg speedWind from/ knotsBaromVisibWave heightAir tempDewpointWater temp
2018-Jun-21 11:30N 29°19' W 094°47'0 0.0
2018-Jun-21 11:00N 29°19' W 094°47'0 0.0
2018-Jun-21 10:30N 29°19' W 094°47'0 0.0
2018-Jun-21 10:00N 29°19' W 094°47'0 0.0
2018-Jun-21 09:30N 29°19' W 094°47'0 0.0
2018-Jun-21 09:00N 29°19' W 094°47'0 0.0
2018-Jun-21 08:30N 29°19' W 094°47'0 0.0
2018-Jun-21 07:57N 29°19' W 094°47'0 0.0
2018-Jun-21 07:30N 29°19' W 094°47'0 0.0
2018-Jun-21 07:00N 29°19' W 094°47'0 0.0
2018-Jun-21 06:30N 29°19' W 094°47'0 0.0
2018-Jun-21 05:58N 29°19' W 094°47'0 0.0
2018-Jun-21 05:28N 29°19' W 094°47'0 0.0
2018-Jun-21 04:58N 29°19' W 094°47'0 0.0
2018-Jun-21 04:28N 29°19' W 094°47'0 0.0
2018-Jun-21 03:58N 29°19' W 094°47'0 0.0
2018-Jun-21 03:28N 29°19' W 094°47'0 0.0
2018-Jun-21 02:58N 29°19' W 094°47'0 0.0
2018-Jun-21 02:28N 29°19' W 094°47'0 0.0
2018-Jun-21 01:58N 29°19' W 094°47'0 0.0
2018-Jun-21 01:28N 29°19' W 094°47'0 0.0
2018-Jun-21 00:58N 29°19' W 094°47'0 0.0
2018-Jun-21 00:25N 29°19' W 094°47'0 0.0
2018-Jun-20 23:58N 29°19' W 094°47'0 0.0
2018-Jun-20 23:28N 29°19' W 094°47'0 0.0
2018-Jun-20 22:58N 29°19' W 094°47'0 0.0
2018-Jun-20 22:28N 29°19' W 094°47'0 0.0
2018-Jun-20 21:58N 29°19' W 094°47'0 0.0
2018-Jun-20 21:28N 29°19' W 094°47'0 0.0
2018-Jun-20 20:58N 29°19' W 094°47'0 0.0
2018-Jun-20 20:28N 29°19' W 094°47'0 0.0
2018-Jun-20 19:52N 29°19' W 094°47'0 0.3
2018-Jun-20 19:28N 29°19' W 094°47'2 3.2
2018-Jun-20 18:59N 29°21' W 094°47'2 4.7
2018-Jun-20 18:30N 29°23' W 094°48'3 5.2
2018-Jun-20 18:00N 29°25' W 094°50'3 5.4
2018-Jun-20 17:26N 29°28' W 094°51'3 5.8
2018-Jun-20 16:52N 29°31' W 094°53'2 6.0
2018-Jun-20 16:30N 29°33' W 094°54'3 6.2
2018-Jun-20 15:58N 29°35' W 094°56'3 6.3
2018-Jun-20 15:27N 29°38' W 094°58'3 6.3
2018-Jun-20 15:01N 29°41' W 094°59'5 0.4
2018-Jun-20 02:34N 29°44' W 095°03'0 0.0
2018-Jun-20 02:13N 29°44' W 095°03'0 0.0
2018-Jun-20 01:58N 29°44' W 095°03'0 0.0
2018-Jun-20 01:28N 29°44' W 095°03'0 0.0
2018-Jun-20 00:31N 29°44' W 095°03'1309161.4
2018-Jun-19 16:24N 41°15' W 072°17'2 3.8
2018-Jun-19 15:52N 41°15' W 072°20'2 4.6
2018-Jun-19 15:30N 41°15' W 072°22'3 5.9
2018-Jun-19 15:00N 41°14' W 072°26'2 4.9
2018-Jun-19 14:30N 41°13' W 072°29'5 7.5
2018-Jun-19 13:52N 41°11' W 072°35'  
2018-Jun-15 15:17N 40°45' W 073°58'2 6.8
2018-Jun-15 14:57N 40°43' W 073°58'3 7.4
2018-Jun-15 14:29N 40°41' W 074°02'122271.8
2018-Jun-14 21:29N 29°42' W 095°01'2 4.3
2018-Jun-14 21:00N 29°41' W 094°59'2 4.6
2018-Jun-14 20:30N 29°39' W 094°58'2 3.6
2018-Jun-14 19:54N 29°37' W 094°58'2 5.3
2018-Jun-14 19:30N 29°37' W 095°01'1 1.3
2018-Jun-14 19:00N 29°37' W 095°01'0 0.0
2018-Jun-14 18:20N 29°37' W 095°01'0 0.1
2018-Jun-14 17:59N 29°37' W 095°01'0 0.2
2018-Jun-14 17:29N 29°37' W 095°01'0 0.0
2018-Jun-14 16:59N 29°37' W 095°01'0 0.0
2018-Jun-14 16:29N 29°37' W 095°01'0 0.1
2018-Jun-14 15:56N 29°37' W 095°02'0 0.0
2018-Jun-14 15:29N 29°37' W 095°02'0 0.0
2018-Jun-14 14:57N 29°37' W 095°02'0 0.0
2018-Jun-14 14:27N 29°37' W 095°02'0 0.0
2018-Jun-14 13:57N 29°37' W 095°02'0 0.0
2018-Jun-14 13:21N 29°37' W 095°02'0 0.0
2018-Jun-14 12:57N 29°37' W 095°02'0 0.0
2018-Jun-14 12:30N 29°37' W 095°02'0 0.0
2018-Jun-14 12:00N 29°37' W 095°02'0 0.0
2018-Jun-14 11:30N 29°37' W 095°02'0 0.0
2018-Jun-14 11:00N 29°37' W 095°02'0 0.0
2018-Jun-14 10:30N 29°37' W 095°02'0 0.0
2018-Jun-14 10:00N 29°37' W 095°02'0 0.0
2018-Jun-14 09:30N 29°37' W 095°02'0 0.0
2018-Jun-14 08:57N 29°37' W 095°02'0 0.0
2018-Jun-14 08:27N 29°37' W 095°02'0 0.0
2018-Jun-14 08:00N 29°37' W 095°02'0 0.0
2018-Jun-14 07:27N 29°37' W 095°02'0 0.0
2018-Jun-14 06:51N 29°37' W 095°02'0 0.0
2018-Jun-14 06:30N 29°37' W 095°02'0 0.0
2018-Jun-14 05:57N 29°37' W 095°02'0 0.0
2018-Jun-14 05:27N 29°37' W 095°02'0 0.0
2018-Jun-14 05:00N 29°37' W 095°02'0 0.0
2018-Jun-14 04:27N 29°37' W 095°02'0 0.0
2018-Jun-14 04:00N 29°37' W 095°02'0 0.0
2018-Jun-14 03:30N 29°37' W 095°02'0 0.1
2018-Jun-14 03:00N 29°37' W 095°01'0 0.4
2018-Jun-14 02:30N 29°37' W 095°01'0 0.4
2018-Jun-14 02:00N 29°37' W 095°01'0 0.4
2018-Jun-14 01:30N 29°37' W 095°01'0 0.3
2018-Jun-14 00:58N 29°37' W 095°02'12023011.2
2018-Jun-14 00:34N 39°47' W 074°02'0 6.9
2018-Jun-14 00:30N 39°46' W 074°02'120229229.9
2018-Jun-14 00:28N 29°37' W 095°02'11992563.1
2018-Jun-14 00:00N 39°43' W 074°04'119936579.2
2018-Jun-13 23:58N 29°37' W 095°02'0 0.0
2018-Jun-13 23:31N 29°37' W 095°02'119636496.1
2018-Jun-13 23:29N 39°40' W 074°06'11962561.9
2018-Jun-13 23:01N 29°37' W 095°02'119446717.9
2018-Jun-13 22:59N 39°37' W 074°07'11942280.1
2018-Jun-13 22:28N 29°37' W 095°02'0 0.0
2018-Jun-13 21:58N 29°37' W 095°02'0 0.0
2018-Jun-13 21:28N 29°37' W 095°02'0 0.0
2018-Jun-13 20:58N 29°37' W 095°02'0 0.0
2018-Jun-13 20:28N 29°37' W 095°02'0 0.0
2018-Jun-13 19:58N 29°37' W 095°02'0 0.0
2018-Jun-13 19:28N 29°37' W 095°02'0 0.0
2018-Jun-13 18:58N 29°37' W 095°02'0 0.0
2018-Jun-13 18:28N 29°37' W 095°02'0 0.0
2018-Jun-13 17:58N 29°37' W 095°02'0 0.0
2018-Jun-13 17:25N 29°37' W 095°02'0 0.0
2018-Jun-13 16:58N 29°37' W 095°02'0 0.0
2018-Jun-13 16:28N 29°37' W 095°02'0 0.0
2018-Jun-13 15:58N 29°37' W 095°02'0 0.0
2018-Jun-13 15:28N 29°37' W 095°02'0 0.0
2018-Jun-13 14:58N 29°37' W 095°02'0 0.0
2018-Jun-13 14:28N 29°37' W 095°02'0 0.0
2018-Jun-13 13:49N 29°37' W 095°02'0 0.0
2018-Jun-13 13:28N 29°37' W 095°02'0 0.0
2018-Jun-13 12:58N 29°37' W 095°02'0 0.0
2018-Jun-13 12:28N 29°37' W 095°02'0 0.0
2018-Jun-13 11:55N 29°37' W 095°02'0 0.1
2018-Jun-13 11:28N 29°37' W 095°01'0 0.0
2018-Jun-13 10:58N 29°37' W 095°01'0 0.0
2018-Jun-13 10:28N 29°37' W 095°01'0 0.0
2018-Jun-13 09:58N 29°37' W 095°01'0 0.0
2018-Jun-13 09:28N 29°37' W 095°01'0 0.2
2018-Jun-13 08:58N 29°37' W 095°01'0 0.0
2018-Jun-13 08:29N 29°37' W 095°01'0 0.2
2018-Jun-13 07:59N 29°37' W 095°02'0 0.3
2018-Jun-13 07:29N 29°37' W 095°01'0 0.3
2018-Jun-13 06:59N 29°37' W 095°02'0 0.0
2018-Jun-13 06:30N 29°37' W 095°02'0 1.0
2018-Jun-13 06:00N 29°37' W 095°01'3 5.4
2018-Jun-13 05:30N 29°37' W 094°58'3 6.2
2018-Jun-13 04:57N 29°34' W 094°55'3 6.7
2018-Jun-13 04:28N 29°32' W 094°53'3 6.2
2018-Jun-13 04:00N 29°29' W 094°52'3 6.2
2018-Jun-13 03:30N 29°26' W 094°50'3 5.7
2018-Jun-13 03:01N 29°24' W 094°49'2 4.1
2018-Jun-13 02:30N 29°22' W 094°49'3 6.5
2018-Jun-13 01:59N 29°23' W 094°52'0 0.3
2018-Jun-13 01:26N 29°23' W 094°52'0 0.0
2018-Jun-13 00:53N 29°23' W 094°52'0 0.0
2018-Jun-13 00:29N 29°23' W 094°52'0 0.0
2018-Jun-12 23:59N 29°23' W 094°52'0 0.0
2018-Jun-12 23:20N 29°23' W 094°52'1 1.9
2018-Jun-12 23:00N 29°23' W 094°53'1 2.1
2018-Jun-12 22:29N 29°22' W 094°54'0 0.0
2018-Jun-12 21:56N 29°22' W 094°53'0 0.0
2018-Jun-12 21:26N 29°22' W 094°53'1 3.2
2018-Jun-12 21:01N 29°23' W 094°52'1 2.6
2018-Jun-12 20:28N 29°22' W 094°54'113620150.5
2018-Jun-12 20:24N 39°07' W 075°15'11362561.4
2018-Jun-12 19:58N 29°22' W 094°54'113720063.0
2018-Jun-12 19:54N 39°09' W 075°16'2 5.4
2018-Jun-12 19:30N 39°11' W 075°17'113726239.0
2018-Jun-12 19:28N 29°22' W 094°54'11372492.3
2018-Jun-12 19:00N 39°14' W 075°19'113726066.5
2018-Jun-12 18:58N 29°22' W 094°54'11362488.2
2018-Jun-12 18:30N 39°16' W 075°22'1135145962.1
2018-Jun-12 18:30N 29°22' W 094°53'11352264.9
2018-Jun-12 18:00N 39°19' W 075°24'113410742.7
2018-Jun-12 17:53N 29°23' W 094°52'11332936.7
2018-Jun-12 17:30N 39°21' W 075°27'113379980.7
2018-Jun-12 17:29N 29°23' W 094°52'11322355.5
2018-Jun-12 17:01N 39°24' W 075°30'113257394.6
2018-Jun-12 16:59N 29°23' W 094°52'11312354.8
2018-Jun-12 16:31N 39°27' W 075°33'113046745.4
2018-Jun-12 16:29N 29°22' W 094°50'3 6.2
2018-Jun-12 16:00N 29°21' W 094°47'1129338697.3
2018-Jun-12 16:00N 39°30' W 075°34'1130917.5
2018-Jun-12 14:46N 29°19' W 094°47'0 0.3
2018-Jun-12 14:22N 29°19' W 094°47'0 0.1
2018-Jun-12 13:52N 29°19' W 094°47'0 0.1
2018-Jun-12 13:08N 29°19' W 094°47'0 0.0
2018-Jun-12 12:59N 29°19' W 094°47'0 0.0
2018-Jun-12 12:29N 29°19' W 094°47'0 0.0
2018-Jun-12 11:32N 29°19' W 094°47'0 0.0
2018-Jun-12 11:29N 29°19' W 094°47'0 0.0
2018-Jun-12 02:35N 29°19' W 094°47'0 0.0
2018-Jun-12 02:26N 29°19' W 094°47'0 0.0
2018-Jun-12 01:56N 29°19' W 094°47'0 0.0
2018-Jun-12 01:29N 29°19' W 094°47'11315373.0
2018-Jun-12 01:16N 39°31' W 075°34'0 1.5
2018-Jun-12 01:00N 39°32' W 075°34'113150285.5
2018-Jun-12 00:59N 29°19' W 094°47'11322371.3
2018-Jun-12 00:30N 39°34' W 075°34'113252259.0
2018-Jun-12 00:29N 29°19' W 094°47'11292371.6
2018-Jun-12 00:00N 39°33' W 075°38'112947822.9
2018-Jun-11 23:59N 29°19' W 094°47'11262365.6
2018-Jun-11 23:30N 39°33' W 075°43'112644530.2
2018-Jun-11 23:29N 29°19' W 094°47'11222362.9
2018-Jun-11 23:00N 39°32' W 075°48'112244869.3
2018-Jun-11 22:59N 29°19' W 094°47'11182315.8
2018-Jun-11 22:30N 39°31' W 075°53'111864915.9
2018-Jun-11 22:29N 29°19' W 094°47'11142268.5
2018-Jun-11 21:59N 39°29' W 075°57'1114133692.9
2018-Jun-11 21:59N 29°19' W 094°47'0 0.0
2018-Jun-11 21:29N 29°19' W 094°47'0 0.0
2018-Jun-11 20:59N 29°19' W 094°47'0 0.0
2018-Jun-11 20:29N 29°19' W 094°47'0 0.0
2018-Jun-11 19:59N 29°19' W 094°47'0 0.0
2018-Jun-11 19:29N 29°19' W 094°47'0 0.0
2018-Jun-11 18:59N 29°19' W 094°47'0 0.0
2018-Jun-11 18:29N 29°19' W 094°47'0 0.0
2018-Jun-11 17:53N 29°19' W 094°47'0 0.0
2018-Jun-11 17:29N 29°19' W 094°47'0 0.0
2018-Jun-11 16:56N 29°19' W 094°47'0 0.0
2018-Jun-11 16:29N 29°19' W 094°47'108129702.8
2018-Jun-11 16:27N 38°59' W 076°25'10812331.4
2018-Jun-11 15:59N 29°19' W 094°47'0 0.0
2018-Jun-11 15:26N 29°19' W 094°47'0 0.0
2018-Jun-11 14:59N 29°19' W 094°47'0 0.0
2018-Jun-11 14:20N 29°19' W 094°47'0 0.0
2018-Jun-11 13:59N 29°19' W 094°47'0 0.0
2018-Jun-11 13:29N 29°19' W 094°47'0 0.0
2018-Jun-11 12:59N 29°19' W 094°47'0 0.0
2018-Jun-11 12:29N 29°19' W 094°47'0 0.0
2018-Jun-11 11:59N 29°19' W 094°47'  

Dump ship's entire track history